createdAt,value
2023-07-24T00:02:00.171Z,43.18
2023-07-24T00:04:28.630Z,43.23
2023-07-24T00:06:57.156Z,43.36
2023-07-24T00:09:26.175Z,43.44
2023-07-24T00:11:54.640Z,43.39
2023-07-24T00:14:23.120Z,43.50
2023-07-24T00:16:51.637Z,43.47
2023-07-24T00:19:21.466Z,43.59
2023-07-24T00:21:50.015Z,43.62
2023-07-24T00:24:18.502Z,43.81
2023-07-24T00:26:47.035Z,43.58
2023-07-24T00:29:15.537Z,43.62
2023-07-24T00:31:44.496Z,43.88
2023-07-24T00:34:13.097Z,43.79
2023-07-24T00:36:43.689Z,43.96
2023-07-24T00:39:12.268Z,43.95
2023-07-24T00:41:40.799Z,43.94
2023-07-24T00:44:09.264Z,43.89
2023-07-24T00:46:38.327Z,43.88
2023-07-24T00:49:07.351Z,44.09
2023-07-24T00:51:36.483Z,44.25
2023-07-24T00:54:08.433Z,44.14
2023-07-24T00:56:37.063Z,44.13
2023-07-24T00:59:05.674Z,44.14
2023-07-24T01:01:34.370Z,44.30
2023-07-24T01:04:07.615Z,44.29
2023-07-24T01:06:36.368Z,44.08
2023-07-24T01:09:06.774Z,44.11
2023-07-24T01:11:40.999Z,44.18
2023-07-24T01:14:15.778Z,44.46
2023-07-24T01:16:44.857Z,44.36
2023-07-24T01:19:18.618Z,44.00
2023-07-24T01:22:00.665Z,44.43
2023-07-24T01:24:46.823Z,44.44
2023-07-24T01:27:22.175Z,44.36
2023-07-24T01:29:50.675Z,44.21
2023-07-24T01:32:19.961Z,44.28
2023-07-24T01:34:50.642Z,44.28
2023-07-24T01:37:21.396Z,44.43
2023-07-24T01:39:50.309Z,44.50
2023-07-24T01:42:19.237Z,44.38
2023-07-24T01:44:53.522Z,44.37
2023-07-24T01:47:22.727Z,44.66
2023-07-24T01:49:51.370Z,44.44
2023-07-24T01:52:20.092Z,44.44
2023-07-24T01:54:48.622Z,44.60
2023-07-24T01:57:17.164Z,44.69
2023-07-24T01:59:46.101Z,44.53
2023-07-24T02:02:16.250Z,44.54
2023-07-24T02:04:45.055Z,44.75
2023-07-24T02:07:13.510Z,44.56
2023-07-24T02:09:41.991Z,44.63
2023-07-24T02:12:10.564Z,44.80
2023-07-24T02:14:39.200Z,44.56
2023-07-24T02:17:07.796Z,44.64
2023-07-24T02:19:38.035Z,44.67
2023-07-24T02:22:08.218Z,44.70
2023-07-24T02:24:37.649Z,44.75
2023-07-24T02:27:07.518Z,44.71
2023-07-24T02:29:36.912Z,44.89
2023-07-24T02:32:05.956Z,44.71
2023-07-24T02:34:34.541Z,44.97
2023-07-24T02:37:04.612Z,44.78
2023-07-24T02:39:33.085Z,44.77
2023-07-24T02:42:02.919Z,44.70
2023-07-24T02:44:31.378Z,44.80
2023-07-24T02:46:59.841Z,44.90
2023-07-24T02:49:28.277Z,44.79
2023-07-24T02:51:56.710Z,44.83
2023-07-24T02:54:27.565Z,45.03
2023-07-24T02:56:56.066Z,44.89
2023-07-24T02:59:24.460Z,44.95
2023-07-24T03:01:53.035Z,45.06
2023-07-24T03:04:21.748Z,44.94
2023-07-24T03:06:51.829Z,44.64
2023-07-24T03:09:20.358Z,44.96
2023-07-24T03:11:50.198Z,44.69
2023-07-24T03:14:18.603Z,44.85
2023-07-24T03:16:47.104Z,44.79
2023-07-24T03:19:18.512Z,44.80
2023-07-24T03:21:47.050Z,44.83
2023-07-24T03:24:15.754Z,44.81
2023-07-24T03:26:44.674Z,44.80
2023-07-24T03:29:14.468Z,44.80
2023-07-24T03:31:42.962Z,45.08
2023-07-24T03:34:11.471Z,44.94
2023-07-24T03:36:42.466Z,44.97
2023-07-24T03:39:12.014Z,44.95
2023-07-24T03:41:41.156Z,45.09
2023-07-24T03:44:09.628Z,45.06
2023-07-24T03:46:39.485Z,45.04
2023-07-24T03:49:07.970Z,45.27
2023-07-24T03:51:36.466Z,45.00
2023-07-24T03:54:05.090Z,44.90
2023-07-24T03:56:33.530Z,45.13
2023-07-24T03:59:02.016Z,45.33
2023-07-24T04:01:30.581Z,45.10
2023-07-24T04:04:01.143Z,45.03
2023-07-24T04:06:30.156Z,45.34
2023-07-24T04:08:59.915Z,45.29
2023-07-24T04:11:28.481Z,45.19
2023-07-24T04:13:57.011Z,45.21
2023-07-24T04:16:26.876Z,45.15
2023-07-24T04:18:57.603Z,45.29
2023-07-24T04:21:27.462Z,45.38
2023-07-24T04:23:56.011Z,45.27
2023-07-24T04:26:24.485Z,45.22
2023-07-24T04:28:52.954Z,45.33
2023-07-24T04:31:21.580Z,45.42
2023-07-24T04:33:50.126Z,45.20
2023-07-24T04:36:18.607Z,45.46
2023-07-24T04:38:48.535Z,45.26
2023-07-24T04:41:17.100Z,45.22
2023-07-24T04:43:45.624Z,45.46
2023-07-24T04:46:14.177Z,45.41
2023-07-24T04:48:42.769Z,45.28
2023-07-24T04:51:11.221Z,45.23
2023-07-24T04:53:39.738Z,45.67
2023-07-24T04:56:09.652Z,46.40
2023-07-24T04:58:38.196Z,45.93
2023-07-24T05:01:06.906Z,45.69
2023-07-24T05:03:35.425Z,46.25
2023-07-24T05:06:03.861Z,46.07
2023-07-24T05:08:32.341Z,46.36
2023-07-24T05:11:01.146Z,46.58
2023-07-24T05:13:31.026Z,46.48
2023-07-24T05:15:59.549Z,46.53
2023-07-24T05:18:28.130Z,46.53
2023-07-24T05:20:56.817Z,47.07
2023-07-24T05:23:25.561Z,46.92
2023-07-24T05:25:59.242Z,47.14
2023-07-24T05:28:28.495Z,47.28
2023-07-24T05:31:01.756Z,47.24
2023-07-24T05:33:30.397Z,47.32
2023-07-24T05:36:02.185Z,47.15
2023-07-24T05:38:31.157Z,47.32
2023-07-24T05:41:00.727Z,47.56
2023-07-24T05:43:29.802Z,47.64
2023-07-24T05:46:00.148Z,47.70
2023-07-24T05:48:28.718Z,47.63
2023-07-24T05:50:57.253Z,47.57
2023-07-24T05:53:25.762Z,47.45
2023-07-24T05:56:01.816Z,47.72
2023-07-24T05:58:30.542Z,47.79
2023-07-24T06:01:00.456Z,48.10
2023-07-24T06:03:29.164Z,48.15
2023-07-24T06:05:58.285Z,48.21
2023-07-24T06:08:26.935Z,48.33
2023-07-24T06:10:55.680Z,48.36
2023-07-24T06:13:24.192Z,48.57
2023-07-24T06:15:54.304Z,48.32
2023-07-24T06:18:24.113Z,48.46
2023-07-24T06:20:54.974Z,48.50
2023-07-24T06:23:23.476Z,48.61
2023-07-24T06:25:52.823Z,48.76
2023-07-24T06:28:21.553Z,48.78
2023-07-24T06:30:50.035Z,48.85
2023-07-24T06:33:18.609Z,49.07
2023-07-24T06:35:48.478Z,49.11
2023-07-24T06:38:16.972Z,49.13
2023-07-24T06:40:45.539Z,49.06
2023-07-24T06:43:14.048Z,49.02
2023-07-24T06:45:42.504Z,48.57
2023-07-24T06:48:11.022Z,48.00
2023-07-24T06:50:39.504Z,48.95
2023-07-24T06:53:09.369Z,49.11
2023-07-24T06:55:38.014Z,48.96
2023-07-24T06:58:06.454Z,49.12
2023-07-24T07:00:34.931Z,49.17
2023-07-24T07:03:03.488Z,49.23
2023-07-24T07:05:33.807Z,49.30
2023-07-24T07:08:02.250Z,49.35
2023-07-24T07:10:32.773Z,49.52
2023-07-24T07:13:01.332Z,49.78
2023-07-24T07:15:29.897Z,49.65
2023-07-24T07:17:58.501Z,49.53
2023-07-24T07:20:26.978Z,49.69
2023-07-24T07:22:55.403Z,49.79
2023-07-24T07:25:23.879Z,49.65
2023-07-24T07:27:53.784Z,49.63
2023-07-24T07:30:22.245Z,49.69
2023-07-24T07:32:50.736Z,49.72
2023-07-24T07:35:19.160Z,49.03
2023-07-24T07:37:47.627Z,48.26
2023-07-24T07:40:16.270Z,48.11
2023-07-24T07:42:46.071Z,48.23
2023-07-24T07:45:15.924Z,48.37
2023-07-24T07:47:44.384Z,48.62
2023-07-24T07:50:13.171Z,48.62
2023-07-24T07:52:41.748Z,48.88
2023-07-24T07:55:11.937Z,48.86
2023-07-24T07:57:40.716Z,48.90
2023-07-24T08:00:10.109Z,49.00
2023-07-24T08:02:40.826Z,49.00
2023-07-24T08:05:15.973Z,49.14
2023-07-24T08:07:48.801Z,48.88
2023-07-24T08:10:17.877Z,49.01
2023-07-24T08:12:46.738Z,48.86
2023-07-24T08:15:15.213Z,48.45
2023-07-24T08:17:45.116Z,48.41
2023-07-24T08:20:13.832Z,48.46
2023-07-24T08:22:42.303Z,48.37
2023-07-24T08:25:11.090Z,48.33
2023-07-24T08:27:54.456Z,48.21
2023-07-24T08:30:27.979Z,48.25
2023-07-24T08:32:58.173Z,48.12
2023-07-24T08:35:26.794Z,48.10
2023-07-24T08:37:55.394Z,47.98
2023-07-24T08:40:23.834Z,48.00
2023-07-24T08:42:52.691Z,47.93
2023-07-24T08:45:22.652Z,47.58
2023-07-24T08:47:52.742Z,47.90
2023-07-24T08:50:22.999Z,47.80
2023-07-24T08:52:51.590Z,47.71
2023-07-24T08:55:22.594Z,47.72
2023-07-24T08:57:51.341Z,47.83
2023-07-24T09:00:20.648Z,47.76
2023-07-24T09:02:49.238Z,47.85
2023-07-24T09:05:18.009Z,47.67
2023-07-24T09:07:48.351Z,47.90
2023-07-24T09:10:17.093Z,47.92
2023-07-24T09:12:46.432Z,47.70
2023-07-24T09:15:15.063Z,47.76
2023-07-24T09:17:51.334Z,47.69
2023-07-24T09:20:32.172Z,47.88
2023-07-24T09:23:15.155Z,47.58
2023-07-24T09:25:46.211Z,47.69
2023-07-24T09:28:16.713Z,47.74
2023-07-24T09:30:55.060Z,47.73
2023-07-24T09:33:24.657Z,47.67
2023-07-24T09:36:00.620Z,47.65
2023-07-24T09:38:30.548Z,47.68
2023-07-24T09:40:59.398Z,47.69
2023-07-24T09:43:39.793Z,47.51
2023-07-24T09:46:10.640Z,47.61
2023-07-24T09:48:43.864Z,47.53
2023-07-24T09:51:34.023Z,47.63
2023-07-24T09:54:12.388Z,47.74
2023-07-24T09:56:50.395Z,47.48
2023-07-24T09:59:25.677Z,47.60
2023-07-24T10:01:55.289Z,47.61
2023-07-24T10:04:25.598Z,47.42
2023-07-24T10:06:54.642Z,47.65
2023-07-24T10:09:27.450Z,47.47
2023-07-24T10:11:58.433Z,47.57
2023-07-24T10:14:27.788Z,47.39
2023-07-24T10:16:57.504Z,47.35
2023-07-24T10:19:26.095Z,47.53
2023-07-24T10:21:54.698Z,47.51
2023-07-24T10:24:40.954Z,47.39
2023-07-24T10:27:10.604Z,47.50
2023-07-24T10:29:40.010Z,47.39
2023-07-24T10:32:19.724Z,47.37
2023-07-24T10:34:58.018Z,47.67
2023-07-24T10:37:34.398Z,47.46
2023-07-24T10:40:05.538Z,47.53
2023-07-24T10:42:35.093Z,47.28
2023-07-24T10:45:07.830Z,47.65
2023-07-24T10:47:36.458Z,48.65
2023-07-24T10:50:05.407Z,49.52
2023-07-24T10:52:34.809Z,50.35
2023-07-24T10:55:05.102Z,50.86
2023-07-24T10:57:34.060Z,51.78
2023-07-24T11:00:02.761Z,52.37
2023-07-24T11:02:32.883Z,53.19
2023-07-24T11:05:02.212Z,53.54
2023-07-24T11:07:34.759Z,53.86
2023-07-24T11:10:04.885Z,54.61
2023-07-24T11:12:33.385Z,54.57
2023-07-24T11:15:01.913Z,55.19
2023-07-24T11:17:41.352Z,55.24
2023-07-24T11:20:12.095Z,54.79
2023-07-24T11:22:41.700Z,55.58
2023-07-24T11:25:13.073Z,56.17
2023-07-24T11:27:44.692Z,56.02
2023-07-24T11:30:14.134Z,56.18
2023-07-24T11:32:43.932Z,56.03
2023-07-24T11:35:13.225Z,55.77
2023-07-24T11:37:41.925Z,56.53
2023-07-24T11:40:15.746Z,56.50
2023-07-24T11:42:46.240Z,56.48
2023-07-24T11:45:14.815Z,55.64
2023-07-24T11:47:44.956Z,54.38
2023-07-24T11:50:13.991Z,53.94
2023-07-24T11:52:45.093Z,54.45
2023-07-24T11:55:16.145Z,54.76
2023-07-24T11:57:44.614Z,55.11
2023-07-24T12:00:22.520Z,55.71
2023-07-24T12:02:52.053Z,56.01
2023-07-24T12:05:20.713Z,56.15
2023-07-24T12:07:49.216Z,56.79
2023-07-24T12:10:29.456Z,57.32
2023-07-24T12:13:01.508Z,56.74
2023-07-24T12:15:30.116Z,57.08
2023-07-24T12:17:58.849Z,56.68
2023-07-24T12:20:27.648Z,56.48
2023-07-24T12:22:56.308Z,56.40
2023-07-24T12:25:24.926Z,55.84
2023-07-24T12:27:54.756Z,55.95
2023-07-24T12:30:23.198Z,55.90
2023-07-24T12:32:51.774Z,55.93
2023-07-24T12:35:20.537Z,55.51
2023-07-24T12:37:49.026Z,55.66
2023-07-24T12:40:17.559Z,54.95
2023-07-24T12:42:46.076Z,55.34
2023-07-24T12:45:16.167Z,55.56
2023-07-24T12:47:44.799Z,54.60
2023-07-24T12:50:13.335Z,55.09
2023-07-24T12:52:41.847Z,55.20
2023-07-24T12:55:11.023Z,55.00
2023-07-24T12:57:39.671Z,54.88
2023-07-24T13:00:10.118Z,54.79
2023-07-24T13:02:40.084Z,56.34
2023-07-24T13:05:09.127Z,55.76
2023-07-24T13:07:38.146Z,55.35
2023-07-24T13:10:08.313Z,55.09
2023-07-24T13:12:36.827Z,54.86
2023-07-24T13:15:06.343Z,55.02
2023-07-24T13:17:34.931Z,54.71
2023-07-24T13:20:05.537Z,54.80
2023-07-24T13:22:34.082Z,54.47
2023-07-24T13:25:02.603Z,53.89
2023-07-24T13:27:31.157Z,53.53
2023-07-24T13:29:59.649Z,53.90
2023-07-24T13:32:28.133Z,53.47
2023-07-24T13:34:56.999Z,53.40
2023-07-24T13:37:26.808Z,53.42
2023-07-24T13:39:55.279Z,53.51
2023-07-24T13:42:23.736Z,53.93
2023-07-24T13:44:52.891Z,53.35
2023-07-24T13:47:22.583Z,53.96
2023-07-24T13:49:51.218Z,53.63
2023-07-24T13:52:19.770Z,53.49
2023-07-24T13:54:49.570Z,53.31
2023-07-24T13:57:18.098Z,53.40
2023-07-24T13:59:46.616Z,53.18
2023-07-24T14:02:15.242Z,53.41
2023-07-24T14:04:43.862Z,53.76
2023-07-24T14:07:14.513Z,54.02
2023-07-24T14:09:43.737Z,53.39
2023-07-24T14:12:14.886Z,53.12
2023-07-24T14:14:43.362Z,53.21
2023-07-24T14:17:11.930Z,53.15
2023-07-24T14:19:40.437Z,53.29
2023-07-24T14:22:08.921Z,53.23
2023-07-24T14:24:37.450Z,53.53
2023-07-24T14:27:06.500Z,53.38
2023-07-24T14:29:36.308Z,53.36
2023-07-24T14:32:05.275Z,53.41
2023-07-24T14:34:33.903Z,53.50
2023-07-24T14:37:02.638Z,53.72
2023-07-24T14:39:31.084Z,53.60
2023-07-24T14:41:59.593Z,53.40
2023-07-24T14:44:28.285Z,53.46
2023-07-24T14:46:58.293Z,53.58
2023-07-24T14:49:27.106Z,53.62
2023-07-24T14:51:55.802Z,53.60
2023-07-24T14:54:24.366Z,53.75
2023-07-24T14:56:57.385Z,53.67
2023-07-24T14:59:30.517Z,53.78
2023-07-24T15:02:00.426Z,53.66
2023-07-24T15:04:28.922Z,53.79
2023-07-24T15:06:57.444Z,54.10
2023-07-24T15:09:25.926Z,54.02
2023-07-24T15:11:54.632Z,53.84
2023-07-24T15:14:23.111Z,53.95
2023-07-24T15:16:51.630Z,54.07
2023-07-24T15:19:21.507Z,53.86
2023-07-24T15:21:49.949Z,53.86
2023-07-24T15:24:19.014Z,53.89
2023-07-24T15:26:47.736Z,53.83
2023-07-24T15:29:19.672Z,53.86
2023-07-24T15:31:48.535Z,53.75
2023-07-24T15:34:17.104Z,53.74
2023-07-24T15:36:46.985Z,53.68
2023-07-24T15:39:15.480Z,56.21
2023-07-24T15:41:44.080Z,55.49
2023-07-24T15:44:12.627Z,55.08
2023-07-24T15:46:41.322Z,54.36
2023-07-24T15:49:09.877Z,53.68
2023-07-24T15:51:41.175Z,53.62
2023-07-24T15:54:11.605Z,53.73
2023-07-24T15:56:41.122Z,53.89
2023-07-24T15:59:10.650Z,53.85
2023-07-24T16:01:39.298Z,54.37
2023-07-24T16:04:07.864Z,54.34
2023-07-24T16:06:36.359Z,54.17
2023-07-24T16:09:04.894Z,54.16
2023-07-24T16:11:34.875Z,53.96
2023-07-24T16:14:03.347Z,53.70
2023-07-24T16:16:31.874Z,54.26
2023-07-24T16:19:13.921Z,54.03
2023-07-24T16:21:42.570Z,54.11
2023-07-24T16:24:11.415Z,53.99
2023-07-24T16:26:41.587Z,53.79
2023-07-24T16:29:11.212Z,54.16
2023-07-24T16:31:40.177Z,54.04
2023-07-24T16:34:09.006Z,53.62
2023-07-24T16:36:37.570Z,53.73
2023-07-24T16:39:07.347Z,53.88
2023-07-24T16:41:36.357Z,53.99
2023-07-24T16:44:08.912Z,53.92
2023-07-24T16:46:38.258Z,53.87
2023-07-24T16:49:07.260Z,53.38
2023-07-24T16:51:35.851Z,53.74
2023-07-24T16:54:04.512Z,53.98
2023-07-24T16:56:33.063Z,53.63
2023-07-24T16:59:01.665Z,53.69
2023-07-24T17:01:32.516Z,53.73
2023-07-24T17:04:01.533Z,53.59
2023-07-24T17:06:30.137Z,53.74
2023-07-24T17:08:58.736Z,53.47
2023-07-24T17:11:27.295Z,53.27
2023-07-24T17:13:55.771Z,53.53
2023-07-24T17:16:24.908Z,53.43
2023-07-24T17:18:57.241Z,53.33
2023-07-24T17:21:25.884Z,53.32
2023-07-24T17:23:54.499Z,53.24
2023-07-24T17:26:22.987Z,53.28
2023-07-24T17:28:51.457Z,53.13
2023-07-24T17:31:20.020Z,53.21
2023-07-24T17:33:48.544Z,53.25
2023-07-24T17:36:18.407Z,53.39
2023-07-24T17:38:46.827Z,53.46
2023-07-24T17:41:15.362Z,53.36
2023-07-24T17:43:43.852Z,53.36
2023-07-24T17:46:12.470Z,53.55
2023-07-24T17:48:41.949Z,53.44
2023-07-24T17:51:10.416Z,53.47
2023-07-24T17:53:40.302Z,53.90
2023-07-24T17:56:08.885Z,53.75
2023-07-24T17:58:37.404Z,53.58
2023-07-24T18:01:05.958Z,53.29
2023-07-24T18:03:34.674Z,53.31
2023-07-24T18:06:03.683Z,53.42
2023-07-24T18:08:32.342Z,53.49
2023-07-24T18:11:02.222Z,53.76
2023-07-24T18:13:30.803Z,53.55
2023-07-24T18:15:59.268Z,53.86
2023-07-24T18:18:27.725Z,55.27
2023-07-24T18:20:56.330Z,55.39
2023-07-24T18:23:24.940Z,56.39
2023-07-24T18:25:53.460Z,56.21
2023-07-24T18:28:23.261Z,56.58
2023-07-24T18:30:51.745Z,56.57
2023-07-24T18:33:20.752Z,57.39
2023-07-24T18:35:50.240Z,57.81
2023-07-24T18:38:20.328Z,58.86
2023-07-24T18:40:49.061Z,58.78
2023-07-24T18:43:17.614Z,59.18
2023-07-24T18:45:47.524Z,60.09
2023-07-24T18:48:16.030Z,59.44
2023-07-24T18:50:45.215Z,59.34
2023-07-24T18:53:13.716Z,58.97
2023-07-24T18:55:42.306Z,59.56
2023-07-24T18:58:11.038Z,60.35
2023-07-24T19:00:39.633Z,60.18
2023-07-24T19:03:38.377Z,59.90
2023-07-24T19:06:09.778Z,59.73
2023-07-24T19:08:38.484Z,60.09
2023-07-24T19:11:07.188Z,60.73
2023-07-24T19:13:37.015Z,60.79
2023-07-24T19:16:05.941Z,60.59
2023-07-24T19:18:35.684Z,61.18
2023-07-24T19:21:05.874Z,61.84
2023-07-24T19:23:34.578Z,61.38
2023-07-24T19:26:03.464Z,61.11
2023-07-24T19:28:31.973Z,61.81
2023-07-24T19:31:00.451Z,60.77
2023-07-24T19:33:28.912Z,59.93
2023-07-24T19:36:01.109Z,60.67
2023-07-24T19:38:31.287Z,60.83
2023-07-24T19:41:00.693Z,60.65
2023-07-24T19:43:29.614Z,60.21
2023-07-24T19:45:58.286Z,60.37
2023-07-24T19:48:27.495Z,60.53
2023-07-24T19:50:57.143Z,59.87
2023-07-24T19:53:26.698Z,59.93
2023-07-24T19:55:56.932Z,59.53
2023-07-24T20:00:57.351Z,59.71
2023-07-24T20:03:25.929Z,59.35
2023-07-24T20:05:56.076Z,58.93
2023-07-24T20:08:26.155Z,59.14
2023-07-24T20:10:57.380Z,59.43
2023-07-24T20:13:26.404Z,59.28
2023-07-24T20:15:55.431Z,59.01
2023-07-24T20:18:23.958Z,59.16
2023-07-24T20:20:53.498Z,58.88
2023-07-24T20:23:21.996Z,58.77
2023-07-24T20:25:51.817Z,58.71
2023-07-24T20:28:22.373Z,58.28
2023-07-24T20:30:51.162Z,58.07
2023-07-24T20:33:19.646Z,57.95
2023-07-24T20:35:48.339Z,57.49
2023-07-24T20:38:24.737Z,57.24
2023-07-24T20:40:53.526Z,57.22
2023-07-24T20:43:23.388Z,57.10
2023-07-24T20:45:52.818Z,56.96
2023-07-24T20:48:21.782Z,56.83
2023-07-24T20:50:50.664Z,56.90
2023-07-24T20:53:19.157Z,56.84
2023-07-24T20:55:48.625Z,56.58
2023-07-24T20:58:17.163Z,56.83
2023-07-24T21:00:47.126Z,56.64
2023-07-24T21:03:15.767Z,56.24
2023-07-24T21:05:44.313Z,56.27
2023-07-24T21:08:12.837Z,56.33
2023-07-24T21:10:41.321Z,56.28
2023-07-24T21:13:10.651Z,55.84
2023-07-24T21:15:39.189Z,56.19
2023-07-24T21:18:09.113Z,55.97
2023-07-24T21:20:37.822Z,56.04
2023-07-24T21:23:06.332Z,55.90
2023-07-24T21:25:34.820Z,55.92
2023-07-24T21:28:03.359Z,55.89
2023-07-24T21:30:31.799Z,55.94
2023-07-24T21:33:00.312Z,55.82
2023-07-24T21:35:30.280Z,55.87
2023-07-24T21:37:58.836Z,55.82
2023-07-24T21:40:27.329Z,55.67
2023-07-24T21:42:55.853Z,55.70
2023-07-24T21:45:24.333Z,55.71
2023-07-24T21:47:52.894Z,55.52
2023-07-24T21:50:21.440Z,55.48
2023-07-24T21:52:51.229Z,55.20
2023-07-24T21:55:19.701Z,55.32
2023-07-24T21:57:48.551Z,55.35
2023-07-24T22:00:17.426Z,55.27
2023-07-24T22:02:46.052Z,55.28
2023-07-24T22:05:14.671Z,55.49
2023-07-24T22:07:43.187Z,55.45
2023-07-24T22:10:13.258Z,55.23
2023-07-24T22:12:41.962Z,55.28
2023-07-24T22:15:11.392Z,55.01
2023-07-24T22:17:40.228Z,55.14
2023-07-24T22:20:12.199Z,55.09
2023-07-24T22:22:42.482Z,55.00
2023-07-24T22:25:11.686Z,55.14
2023-07-24T22:27:41.580Z,54.92
2023-07-24T22:30:11.332Z,54.96
2023-07-24T22:32:39.935Z,55.04
2023-07-24T22:35:09.322Z,54.81
2023-07-24T22:37:37.884Z,54.83
2023-07-24T22:40:07.536Z,54.69
2023-07-24T22:42:36.119Z,54.67
2023-07-24T22:45:07.001Z,54.94
2023-07-24T22:47:35.526Z,54.87
2023-07-24T22:50:04.076Z,54.84
2023-07-24T22:52:32.599Z,54.62
2023-07-24T22:55:01.209Z,54.57
2023-07-24T22:57:29.719Z,54.63
2023-07-24T22:59:58.257Z,54.88
2023-07-24T23:02:28.206Z,54.60
2023-07-24T23:04:56.704Z,54.60
2023-07-24T23:07:25.210Z,54.67
2023-07-24T23:09:53.760Z,54.87
2023-07-24T23:12:22.272Z,54.42
2023-07-24T23:14:50.774Z,54.78
2023-07-24T23:17:19.269Z,54.57
2023-07-24T23:19:49.057Z,54.65
2023-07-24T23:22:17.485Z,54.41
2023-07-24T23:24:45.983Z,54.57
2023-07-24T23:27:14.719Z,54.50
2023-07-24T23:29:43.216Z,54.54
2023-07-24T23:32:11.734Z,54.54
2023-07-24T23:34:40.179Z,54.28
2023-07-24T23:37:10.045Z,54.43
2023-07-24T23:39:38.605Z,54.28
2023-07-24T23:42:07.818Z,54.32
2023-07-24T23:44:36.248Z,54.08
2023-07-24T23:47:05.008Z,54.06
2023-07-24T23:49:33.659Z,54.33
2023-07-24T23:52:02.123Z,54.28
2023-07-24T23:54:31.907Z,54.00
2023-07-24T23:57:00.325Z,54.12
2023-07-24T23:59:28.714Z,54.13
